sensor_id;sensor_type;location;lat;lon;timestamp;P1;durP1;ratioP1;P2;durP2;ratioP2
30010;SDS011;16851;53.564;8.112;2024-03-23T00:55:50;35.07;;;7.00;;
30010;SDS011;16851;53.564;8.112;2024-03-23T01:00:53;34.40;;;5.83;;
30010;SDS011;16851;53.564;8.112;2024-03-23T01:06:00;37.10;;;6.40;;
30010;SDS011;16851;53.564;8.112;2024-03-23T01:11:01;35.17;;;6.73;;
30010;SDS011;16851;53.564;8.112;2024-03-23T01:16:03;40.87;;;7.63;;
30010;SDS011;16851;53.564;8.112;2024-03-23T01:21:04;39.63;;;7.30;;
30010;SDS011;16851;53.564;8.112;2024-03-23T01:26:05;45.43;;;6.70;;
30010;SDS011;16851;53.564;8.112;2024-03-23T01:31:08;41.00;;;6.57;;
30010;SDS011;16851;53.564;8.112;2024-03-23T01:36:11;41.97;;;7.00;;
30010;SDS011;16851;53.564;8.112;2024-03-23T01:41:14;39.47;;;6.33;;
30010;SDS011;16851;53.564;8.112;2024-03-23T01:46:18;43.97;;;7.00;;
30010;SDS011;16851;53.564;8.112;2024-03-23T01:51:26;43.30;;;6.97;;
30010;SDS011;16851;53.564;8.112;2024-03-23T01:56:31;44.40;;;7.70;;
30010;SDS011;16851;53.564;8.112;2024-03-23T02:01:37;45.43;;;7.70;;
30010;SDS011;16851;53.564;8.112;2024-03-23T02:06:40;36.17;;;6.67;;
30010;SDS011;16851;53.564;8.112;2024-03-23T02:11:40;46.80;;;7.40;;
30010;SDS011;16851;53.564;8.112;2024-03-23T02:16:44;44.53;;;7.20;;
30010;SDS011;16851;53.564;8.112;2024-03-23T02:21:47;38.27;;;7.47;;
30010;SDS011;16851;53.564;8.112;2024-03-23T02:26:53;42.97;;;7.67;;
30010;SDS011;16851;53.564;8.112;2024-03-23T02:31:56;42.67;;;6.33;;
30010;SDS011;16851;53.564;8.112;2024-03-23T02:36:57;49.83;;;7.17;;
30010;SDS011;16851;53.564;8.112;2024-03-23T02:41:58;43.10;;;7.17;;
30010;SDS011;16851;53.564;8.112;2024-03-23T02:47:01;38.60;;;6.97;;
30010;SDS011;16851;53.564;8.112;2024-03-23T02:52:02;34.20;;;6.77;;
30010;SDS011;16851;53.564;8.112;2024-03-23T02:57:07;50.83;;;7.77;;
30010;SDS011;16851;53.564;8.112;2024-03-23T03:02:08;46.83;;;7.33;;
30010;SDS011;16851;53.564;8.112;2024-03-23T03:07:09;54.60;;;8.33;;
30010;SDS011;16851;53.564;8.112;2024-03-23T03:12:12;42.87;;;7.40;;
30010;SDS011;16851;53.564;8.112;2024-03-23T03:17:13;62.57;;;9.60;;
30010;SDS011;16851;53.564;8.112;2024-03-23T03:22:17;50.83;;;7.67;;
30010;SDS011;16851;53.564;8.112;2024-03-23T03:27:18;51.17;;;8.27;;
30010;SDS011;16851;53.564;8.112;2024-03-23T03:32:18;44.93;;;6.20;;
30010;SDS011;16851;53.564;8.112;2024-03-23T03:37:19;49.33;;;8.70;;
30010;SDS011;16851;53.564;8.112;2024-03-23T03:42:21;43.43;;;6.70;;
30010;SDS011;16851;53.564;8.112;2024-03-23T03:47:24;40.80;;;7.10;;
30010;SDS011;16851;53.564;8.112;2024-03-23T03:52:27;39.83;;;7.23;;
30010;SDS011;16851;53.564;8.112;2024-03-23T03:57:30;53.73;;;7.20;;
30010;SDS011;16851;53.564;8.112;2024-03-23T04:02:33;42.37;;;8.93;;
30010;SDS011;16851;53.564;8.112;2024-03-23T04:07:36;46.30;;;8.37;;
30010;SDS011;16851;53.564;8.112;2024-03-23T04:12:37;37.17;;;7.47;;
30010;SDS011;16851;53.564;8.112;2024-03-23T04:17:38;41.67;;;7.37;;
30010;SDS011;16851;53.564;8.112;2024-03-23T04:22:43;49.77;;;8.40;;
30010;SDS011;16851;53.564;8.112;2024-03-23T04:27:44;49.33;;;8.37;;
30010;SDS011;16851;53.564;8.112;2024-03-23T04:32:45;35.50;;;8.57;;
30010;SDS011;16851;53.564;8.112;2024-03-23T04:37:46;50.97;;;8.10;;
30010;SDS011;16851;53.564;8.112;2024-03-23T04:42:46;43.57;;;7.47;;
30010;SDS011;16851;53.564;8.112;2024-03-23T04:47:49;39.77;;;7.60;;
30010;SDS011;16851;53.564;8.112;2024-03-23T04:52:50;45.53;;;9.00;;
30010;SDS011;16851;53.564;8.112;2024-03-23T04:57:51;33.33;;;7.33;;
30010;SDS011;16851;53.564;8.112;2024-03-23T05:02:54;52.60;;;8.00;;
30010;SDS011;16851;53.564;8.112;2024-03-23T05:07:58;42.03;;;7.83;;
30010;SDS011;16851;53.564;8.112;2024-03-23T05:12:59;45.70;;;9.10;;
30010;SDS011;16851;53.564;8.112;2024-03-23T05:18:00;43.27;;;8.07;;
30010;SDS011;16851;53.564;8.112;2024-03-23T05:23:03;54.13;;;9.50;;
30010;SDS011;16851;53.564;8.112;2024-03-23T05:28:04;44.80;;;9.07;;
30010;SDS011;16851;53.564;8.112;2024-03-23T05:33:08;52.63;;;9.90;;
30010;SDS011;16851;53.564;8.112;2024-03-23T05:38:09;38.27;;;7.93;;
30010;SDS011;16851;53.564;8.112;2024-03-23T05:43:11;52.58;;;10.00;;
30010;SDS011;16851;53.564;8.112;2024-03-23T05:48:11;47.00;;;8.90;;
30010;SDS011;16851;53.564;8.112;2024-03-23T05:53:15;49.37;;;9.47;;
30010;SDS011;16851;53.564;8.112;2024-03-23T05:58:19;38.80;;;7.67;;
30010;SDS011;16851;53.564;8.112;2024-03-23T06:03:22;35.93;;;8.07;;
30010;SDS011;16851;53.564;8.112;2024-03-23T06:08:29;38.37;;;8.70;;
30010;SDS011;16851;53.564;8.112;2024-03-23T06:13:30;41.50;;;6.50;;
30010;SDS011;16851;53.564;8.112;2024-03-23T06:18:31;35.47;;;7.07;;
30010;SDS011;16851;53.564;8.112;2024-03-23T06:23:34;27.90;;;6.33;;
30010;SDS011;16851;53.564;8.112;2024-03-23T06:28:38;32.57;;;7.43;;
30010;SDS011;16851;53.564;8.112;2024-03-23T06:33:39;34.90;;;5.83;;
30010;SDS011;16851;53.564;8.112;2024-03-23T06:38:42;39.57;;;6.93;;
30010;SDS011;16851;53.564;8.112;2024-03-23T06:43:43;25.33;;;5.37;;
30010;SDS011;16851;53.564;8.112;2024-03-23T06:48:45;36.23;;;7.63;;
30010;SDS011;16851;53.564;8.112;2024-03-23T06:53:49;30.70;;;6.07;;
30010;SDS011;16851;53.564;8.112;2024-03-23T06:58:53;26.73;;;6.13;;
30010;SDS011;16851;53.564;8.112;2024-03-23T07:03:54;24.87;;;5.60;;
30010;SDS011;16851;53.564;8.112;2024-03-23T07:08:58;24.83;;;5.93;;
30010;SDS011;16851;53.564;8.112;2024-03-23T07:14:01;24.33;;;5.00;;
30010;SDS011;16851;53.564;8.112;2024-03-23T07:19:03;25.20;;;5.27;;
30010;SDS011;16851;53.564;8.112;2024-03-23T07:24:04;32.50;;;4.87;;
30010;SDS011;16851;53.564;8.112;2024-03-23T07:29:07;27.57;;;5.10;;
30010;SDS011;16851;53.564;8.112;2024-03-23T07:34:08;21.03;;;4.57;;
30010;SDS011;16851;53.564;8.112;2024-03-23T07:39:12;33.97;;;4.77;;
30010;SDS011;16851;53.564;8.112;2024-03-23T07:44:15;25.33;;;5.17;;
30010;SDS011;16851;53.564;8.112;2024-03-23T07:49:18;27.37;;;4.47;;
30010;SDS011;16851;53.564;8.112;2024-03-23T07:54:21;21.27;;;4.43;;
30010;SDS011;16851;53.564;8.112;2024-03-23T07:59:22;17.53;;;4.10;;
30010;SDS011;16851;53.564;8.112;2024-03-23T08:04:26;23.00;;;4.30;;
30010;SDS011;16851;53.564;8.112;2024-03-23T08:09:30;14.53;;;3.93;;
30010;SDS011;16851;53.564;8.112;2024-03-23T08:14:33;15.73;;;3.70;;
30010;SDS011;16851;53.564;8.112;2024-03-23T08:19:36;18.80;;;3.00;;
30010;SDS011;16851;53.564;8.112;2024-03-23T08:24:37;15.23;;;2.87;;
30010;SDS011;16851;53.564;8.112;2024-03-23T08:29:40;17.50;;;2.40;;
30010;SDS011;16851;53.564;8.112;2024-03-23T08:34:42;9.23;;;1.73;;
30010;SDS011;16851;53.564;8.112;2024-03-23T08:39:43;9.30;;;2.63;;
30010;SDS011;16851;53.564;8.112;2024-03-23T08:44:44;11.87;;;2.43;;
30010;SDS011;16851;53.564;8.112;2024-03-23T08:49:47;15.73;;;2.40;;
30010;SDS011;16851;53.564;8.112;2024-03-23T08:54:48;11.77;;;2.67;;
30010;SDS011;16851;53.564;8.112;2024-03-23T08:59:51;12.60;;;2.93;;
30010;SDS011;16851;53.564;8.112;2024-03-23T09:04:54;11.43;;;2.40;;
30010;SDS011;16851;53.564;8.112;2024-03-23T09:09:55;15.67;;;2.83;;
30010;SDS011;16851;53.564;8.112;2024-03-23T09:14:56;19.93;;;3.40;;
30010;SDS011;16851;53.564;8.112;2024-03-23T09:19:59;27.40;;;3.93;;
30010;SDS011;16851;53.564;8.112;2024-03-23T09:25:03;14.50;;;2.97;;
30010;SDS011;16851;53.564;8.112;2024-03-23T09:30:06;15.40;;;2.87;;
30010;SDS011;16851;53.564;8.112;2024-03-23T09:35:13;15.27;;;2.97;;
30010;SDS011;16851;53.564;8.112;2024-03-23T09:40:18;13.07;;;2.60;;
30010;SDS011;16851;53.564;8.112;2024-03-23T09:45:21;15.67;;;3.00;;
30010;SDS011;16851;53.564;8.112;2024-03-23T09:50:26;15.17;;;3.47;;
30010;SDS011;16851;53.564;8.112;2024-03-23T09:55:28;12.43;;;3.10;;
30010;SDS011;16851;53.564;8.112;2024-03-23T10:00:29;18.43;;;3.47;;
30010;SDS011;16851;53.564;8.112;2024-03-23T10:05:30;16.17;;;2.73;;
30010;SDS011;16851;53.564;8.112;2024-03-23T10:10:37;7.73;;;1.97;;
30010;SDS011;16851;53.564;8.112;2024-03-23T10:15:38;11.10;;;2.57;;
30010;SDS011;16851;53.564;8.112;2024-03-23T10:20:39;14.53;;;2.67;;
30010;SDS011;16851;53.564;8.112;2024-03-23T10:25:41;8.83;;;1.90;;
30010;SDS011;16851;53.564;8.112;2024-03-23T10:30:46;8.73;;;2.03;;
30010;SDS011;16851;53.564;8.112;2024-03-23T10:35:48;8.03;;;1.80;;
30010;SDS011;16851;53.564;8.112;2024-03-23T10:40:49;9.33;;;1.70;;
30010;SDS011;16851;53.564;8.112;2024-03-23T10:45:51;13.17;;;1.80;;
30010;SDS011;16851;53.564;8.112;2024-03-23T10:50:52;9.23;;;2.07;;
30010;SDS011;16851;53.564;8.112;2024-03-23T10:55:55;17.10;;;3.00;;
30010;SDS011;16851;53.564;8.112;2024-03-23T11:00:56;12.60;;;2.17;;
30010;SDS011;16851;53.564;8.112;2024-03-23T11:06:01;10.60;;;2.77;;
30010;SDS011;16851;53.564;8.112;2024-03-23T11:27:02;6.80;;;1.77;;
30010;SDS011;16851;53.564;8.112;2024-03-23T11:32:19;4.13;;;1.43;;
30010;SDS011;16851;53.564;8.112;2024-03-23T11:37:23;4.00;;;1.50;;
30010;SDS011;16851;53.564;8.112;2024-03-23T11:42:31;5.17;;;1.67;;
30010;SDS011;16851;53.564;8.112;2024-03-23T11:47:32;6.80;;;1.70;;
30010;SDS011;16851;53.564;8.112;2024-03-23T11:52:36;5.37;;;1.73;;
30010;SDS011;16851;53.564;8.112;2024-03-23T11:57:44;6.23;;;1.80;;
30010;SDS011;16851;53.564;8.112;2024-03-23T12:02:46;7.15;;;1.92;;
30010;SDS011;16851;53.564;8.112;2024-03-23T12:07:48;11.38;;;2.10;;
30010;SDS011;16851;53.564;8.112;2024-03-23T12:13:01;5.95;;;2.00;;
30010;SDS011;16851;53.564;8.112;2024-03-23T12:18:06;7.35;;;2.05;;
30010;SDS011;16851;53.564;8.112;2024-03-23T12:23:11;12.73;;;2.55;;
30010;SDS011;16851;53.564;8.112;2024-03-23T12:28:17;9.85;;;1.95;;
30010;SDS011;16851;53.564;8.112;2024-03-23T12:33:20;10.90;;;2.30;;
30010;SDS011;16851;53.564;8.112;2024-03-23T12:38:23;10.30;;;2.50;;
30010;SDS011;16851;53.564;8.112;2024-03-23T12:43:27;12.23;;;2.83;;
30010;SDS011;16851;53.564;8.112;2024-03-23T12:48:28;11.38;;;2.53;;
30010;SDS011;16851;53.564;8.112;2024-03-23T12:53:30;13.95;;;2.47;;
30010;SDS011;16851;53.564;8.112;2024-03-23T12:58:31;14.67;;;3.03;;
30010;SDS011;16851;53.564;8.112;2024-03-23T13:03:32;13.47;;;2.53;;
30010;SDS011;16851;53.564;8.112;2024-03-23T13:08:33;8.27;;;2.30;;
30010;SDS011;16851;53.564;8.112;2024-03-23T13:13:35;10.13;;;2.35;;
30010;SDS011;16851;53.564;8.112;2024-03-23T13:18:41;13.75;;;2.55;;
30010;SDS011;16851;53.564;8.112;2024-03-23T13:23:42;10.63;;;2.78;;
30010;SDS011;16851;53.564;8.112;2024-03-23T13:28:50;11.25;;;2.60;;
30010;SDS011;16851;53.564;8.112;2024-03-23T13:33:54;12.43;;;2.30;;
30010;SDS011;16851;53.564;8.112;2024-03-23T13:38:57;12.38;;;3.08;;
30010;SDS011;16851;53.564;8.112;2024-03-23T13:43:58;10.93;;;2.30;;
30010;SDS011;16851;53.564;8.112;2024-03-23T13:49:02;9.80;;;2.20;;
30010;SDS011;16851;53.564;8.112;2024-03-23T13:54:06;4.37;;;1.40;;
30010;SDS011;16851;53.564;8.112;2024-03-23T13:59:07;13.18;;;2.00;;
30010;SDS011;16851;53.564;8.112;2024-03-23T14:04:08;5.72;;;1.40;;
30010;SDS011;16851;53.564;8.112;2024-03-23T14:09:12;9.88;;;2.10;;
30010;SDS011;16851;53.564;8.112;2024-03-23T14:14:17;9.80;;;1.97;;
30010;SDS011;16851;53.564;8.112;2024-03-23T14:19:20;9.55;;;1.60;;
30010;SDS011;16851;53.564;8.112;2024-03-23T14:24:25;8.40;;;1.55;;
30010;SDS011;16851;53.564;8.112;2024-03-23T14:29:26;10.53;;;1.97;;
30010;SDS011;16851;53.564;8.112;2024-03-23T14:34:28;4.40;;;1.47;;
30010;SDS011;16851;53.564;8.112;2024-03-23T14:39:29;9.55;;;1.95;;
30010;SDS011;16851;53.564;8.112;2024-03-23T14:44:34;6.97;;;1.90;;
30010;SDS011;16851;53.564;8.112;2024-03-23T14:49:37;10.93;;;2.67;;
30010;SDS011;16851;53.564;8.112;2024-03-23T14:54:41;8.33;;;1.93;;
30010;SDS011;16851;53.564;8.112;2024-03-23T14:59:42;6.10;;;1.87;;
30010;SDS011;16851;53.564;8.112;2024-03-23T15:04:43;7.27;;;2.00;;
30010;SDS011;16851;53.564;8.112;2024-03-23T15:09:49;8.60;;;2.20;;
30010;SDS011;16851;53.564;8.112;2024-03-23T15:14:49;6.68;;;1.85;;
30010;SDS011;16851;53.564;8.112;2024-03-23T15:19:53;12.20;;;2.10;;
30010;SDS011;16851;53.564;8.112;2024-03-23T15:24:56;5.43;;;2.50;;
30010;SDS011;16851;53.564;8.112;2024-03-23T15:30:00;8.07;;;1.85;;
30010;SDS011;16851;53.564;8.112;2024-03-23T15:35:02;10.43;;;1.90;;
30010;SDS011;16851;53.564;8.112;2024-03-23T15:40:13;8.70;;;2.27;;
30010;SDS011;16851;53.564;8.112;2024-03-23T15:45:18;8.63;;;2.23;;
30010;SDS011;16851;53.564;8.112;2024-03-23T15:50:22;5.97;;;1.53;;
30010;SDS011;16851;53.564;8.112;2024-03-23T15:55:23;8.13;;;2.00;;
30010;SDS011;16851;53.564;8.112;2024-03-23T16:00:26;12.30;;;2.80;;
30010;SDS011;16851;53.564;8.112;2024-03-23T16:05:29;10.80;;;2.17;;
30010;SDS011;16851;53.564;8.112;2024-03-23T16:10:30;13.90;;;2.77;;
30010;SDS011;16851;53.564;8.112;2024-03-23T16:15:32;13.70;;;2.93;;
30010;SDS011;16851;53.564;8.112;2024-03-23T16:20:33;17.30;;;3.03;;
30010;SDS011;16851;53.564;8.112;2024-03-23T16:25:36;13.30;;;2.97;;
30010;SDS011;16851;53.564;8.112;2024-03-23T16:30:38;12.30;;;2.57;;
30010;SDS011;16851;53.564;8.112;2024-03-23T16:35:42;17.10;;;3.07;;
30010;SDS011;16851;53.564;8.112;2024-03-23T16:40:52;10.67;;;2.70;;
30010;SDS011;16851;53.564;8.112;2024-03-23T16:46:01;18.90;;;3.43;;
30010;SDS011;16851;53.564;8.112;2024-03-23T16:51:12;14.00;;;2.83;;
30010;SDS011;16851;53.564;8.112;2024-03-23T16:56:13;21.13;;;7.63;;
30010;SDS011;16851;53.564;8.112;2024-03-23T17:01:15;17.47;;;3.47;;
30010;SDS011;16851;53.564;8.112;2024-03-23T17:06:24;23.03;;;4.43;;
30010;SDS011;16851;53.564;8.112;2024-03-23T17:11:27;22.00;;;6.70;;
30010;SDS011;16851;53.564;8.112;2024-03-23T17:16:32;17.70;;;7.40;;
30010;SDS011;16851;53.564;8.112;2024-03-23T17:21:34;23.65;;;8.88;;
30010;SDS011;16851;53.564;8.112;2024-03-23T17:26:41;21.83;;;8.53;;
30010;SDS011;16851;53.564;8.112;2024-03-23T17:31:42;13.50;;;3.13;;
30010;SDS011;16851;53.564;8.112;2024-03-23T17:36:51;17.38;;;3.83;;
30010;SDS011;16851;53.564;8.112;2024-03-23T17:41:52;12.63;;;3.53;;
30010;SDS011;16851;53.564;8.112;2024-03-23T17:46:59;13.87;;;3.40;;
30010;SDS011;16851;53.564;8.112;2024-03-23T17:52:00;10.37;;;2.60;;
30010;SDS011;16851;53.564;8.112;2024-03-23T17:57:10;10.23;;;2.73;;
30010;SDS011;16851;53.564;8.112;2024-03-23T18:02:16;10.60;;;2.10;;
30010;SDS011;16851;53.564;8.112;2024-03-23T18:07:22;8.80;;;2.77;;
30010;SDS011;16851;53.564;8.112;2024-03-23T18:12:23;12.57;;;3.50;;
30010;SDS011;16851;53.564;8.112;2024-03-23T18:17:24;9.30;;;3.03;;
30010;SDS011;16851;53.564;8.112;2024-03-23T18:22:25;15.73;;;4.47;;
30010;SDS011;16851;53.564;8.112;2024-03-23T18:27:26;20.77;;;7.23;;
30010;SDS011;16851;53.564;8.112;2024-03-23T18:32:29;26.95;;;10.23;;
30010;SDS011;16851;53.564;8.112;2024-03-23T18:37:33;27.47;;;10.03;;
30010;SDS011;16851;53.564;8.112;2024-03-23T18:42:36;32.50;;;10.60;;
30010;SDS011;16851;53.564;8.112;2024-03-23T18:47:38;29.77;;;9.43;;
30010;SDS011;16851;53.564;8.112;2024-03-23T18:52:42;22.97;;;6.57;;
30010;SDS011;16851;53.564;8.112;2024-03-23T18:57:43;16.83;;;4.53;;
30010;SDS011;16851;53.564;8.112;2024-03-23T19:02:47;20.20;;;5.57;;
30010;SDS011;16851;53.564;8.112;2024-03-23T19:07:48;22.57;;;7.03;;
30010;SDS011;16851;53.564;8.112;2024-03-23T19:12:49;14.93;;;4.40;;
30010;SDS011;16851;53.564;8.112;2024-03-23T19:17:52;18.63;;;4.45;;
30010;SDS011;16851;53.564;8.112;2024-03-23T19:22:53;25.80;;;4.53;;
30010;SDS011;16851;53.564;8.112;2024-03-23T19:27:57;15.77;;;4.50;;
30010;SDS011;16851;53.564;8.112;2024-03-23T19:33:06;18.83;;;4.37;;
30010;SDS011;16851;53.564;8.112;2024-03-23T19:38:08;14.97;;;3.27;;
30010;SDS011;16851;53.564;8.112;2024-03-23T19:43:09;18.00;;;4.17;;
30010;SDS011;16851;53.564;8.112;2024-03-23T19:48:15;18.63;;;3.70;;
30010;SDS011;16851;53.564;8.112;2024-03-23T19:53:16;17.53;;;5.27;;
30010;SDS011;16851;53.564;8.112;2024-03-23T19:58:17;24.77;;;6.87;;
30010;SDS011;16851;53.564;8.112;2024-03-23T20:03:20;12.83;;;4.27;;
30010;SDS011;16851;53.564;8.112;2024-03-23T20:08:21;16.00;;;4.87;;
30010;SDS011;16851;53.564;8.112;2024-03-23T20:13:22;11.30;;;3.87;;
30010;SDS011;16851;53.564;8.112;2024-03-23T20:18:24;9.83;;;3.10;;
30010;SDS011;16851;53.564;8.112;2024-03-23T20:23:28;18.63;;;4.50;;
30010;SDS011;16851;53.564;8.112;2024-03-23T20:28:32;6.27;;;2.43;;
30010;SDS011;16851;53.564;8.112;2024-03-23T20:33:37;15.37;;;4.03;;
30010;SDS011;16851;53.564;8.112;2024-03-23T20:38:41;12.90;;;2.60;;
30010;SDS011;16851;53.564;8.112;2024-03-23T20:43:42;10.27;;;2.50;;
30010;SDS011;16851;53.564;8.112;2024-03-23T20:48:48;13.73;;;3.07;;
30010;SDS011;16851;53.564;8.112;2024-03-23T20:53:50;12.57;;;3.43;;
30010;SDS011;16851;53.564;8.112;2024-03-23T20:58:51;9.53;;;2.50;;
30010;SDS011;16851;53.564;8.112;2024-03-23T21:03:52;15.97;;;3.10;;
30010;SDS011;16851;53.564;8.112;2024-03-23T21:08:56;12.83;;;2.80;;
30010;SDS011;16851;53.564;8.112;2024-03-23T21:13:57;14.20;;;3.10;;
30010;SDS011;16851;53.564;8.112;2024-03-23T21:19:03;12.30;;;3.23;;
30010;SDS011;16851;53.564;8.112;2024-03-23T21:24:04;10.00;;;2.63;;
30010;SDS011;16851;53.564;8.112;2024-03-23T21:29:08;12.70;;;3.47;;
30010;SDS011;16851;53.564;8.112;2024-03-23T21:34:16;6.10;;;2.27;;
30010;SDS011;16851;53.564;8.112;2024-03-23T21:39:16;4.40;;;2.00;;
30010;SDS011;16851;53.564;8.112;2024-03-23T21:44:17;10.30;;;3.00;;
30010;SDS011;16851;53.564;8.112;2024-03-23T21:49:18;10.63;;;2.97;;
30010;SDS011;16851;53.564;8.112;2024-03-23T21:54:19;8.07;;;2.80;;
30010;SDS011;16851;53.564;8.112;2024-03-23T21:59:22;11.97;;;3.00;;
30010;SDS011;16851;53.564;8.112;2024-03-23T22:04:23;8.97;;;2.50;;
30010;SDS011;16851;53.564;8.112;2024-03-23T22:09:24;8.07;;;2.37;;
30010;SDS011;16851;53.564;8.112;2024-03-23T22:14:25;10.10;;;3.10;;
30010;SDS011;16851;53.564;8.112;2024-03-23T22:19:26;8.10;;;2.77;;
30010;SDS011;16851;53.564;8.112;2024-03-23T22:24:30;5.50;;;2.00;;
30010;SDS011;16851;53.564;8.112;2024-03-23T22:29:34;6.13;;;2.40;;
30010;SDS011;16851;53.564;8.112;2024-03-23T22:34:38;13.07;;;3.00;;
30010;SDS011;16851;53.564;8.112;2024-03-23T22:39:41;9.60;;;3.20;;
30010;SDS011;16851;53.564;8.112;2024-03-23T22:44:42;5.13;;;3.17;;
30010;SDS011;16851;53.564;8.112;2024-03-23T22:49:43;7.80;;;2.90;;
30010;SDS011;16851;53.564;8.112;2024-03-23T22:54:46;8.43;;;3.43;;
30010;SDS011;16851;53.564;8.112;2024-03-23T22:59:47;6.40;;;3.03;;
30010;SDS011;16851;53.564;8.112;2024-03-23T23:04:49;6.90;;;2.90;;
30010;SDS011;16851;53.564;8.112;2024-03-23T23:09:50;5.63;;;2.83;;
30010;SDS011;16851;53.564;8.112;2024-03-23T23:14:51;6.53;;;2.80;;
30010;SDS011;16851;53.564;8.112;2024-03-23T23:19:52;8.50;;;3.30;;
30010;SDS011;16851;53.564;8.112;2024-03-23T23:24:55;8.37;;;2.87;;
30010;SDS011;16851;53.564;8.112;2024-03-23T23:30:02;5.57;;;3.47;;
30010;SDS011;16851;53.564;8.112;2024-03-23T23:35:04;7.13;;;2.73;;
30010;SDS011;16851;53.564;8.112;2024-03-23T23:40:08;4.27;;;2.53;;
30010;SDS011;16851;53.564;8.112;2024-03-23T23:45:09;8.00;;;2.50;;
30010;SDS011;16851;53.564;8.112;2024-03-23T23:50:13;5.50;;;2.10;;
30010;SDS011;16851;53.564;8.112;2024-03-23T23:55:16;7.53;;;2.83;;
